createdAt,value
2022-11-17T00:01:20.974Z,61.91
2022-11-17T00:04:08.507Z,62.05
2022-11-17T00:06:56.987Z,61.97
2022-11-17T00:09:44.436Z,61.86
2022-11-17T00:12:50.468Z,61.80
2022-11-17T00:15:37.928Z,62.07
2022-11-17T00:18:43.944Z,62.01
2022-11-17T00:21:31.849Z,62.08
2022-11-17T00:24:19.194Z,62.25
2022-11-17T00:27:06.614Z,62.29
2022-11-17T00:29:54.004Z,62.26
2022-11-17T00:33:00.196Z,62.32
2022-11-17T00:35:54.213Z,62.38
2022-11-17T00:38:41.632Z,62.16
2022-11-17T00:41:29.075Z,62.18
2022-11-17T00:44:16.499Z,62.25
2022-11-17T00:47:03.868Z,62.36
2022-11-17T00:49:51.257Z,62.24
2022-11-17T00:52:38.620Z,62.31
2022-11-17T00:55:26.205Z,62.20
2022-11-17T00:58:13.615Z,62.35
2022-11-17T01:01:01.364Z,62.41
2022-11-17T01:03:48.847Z,62.22
2022-11-17T01:06:37.958Z,62.16
2022-11-17T01:09:25.402Z,62.10
2022-11-17T01:12:12.820Z,62.27
2022-11-17T01:15:00.161Z,62.18
2022-11-17T01:17:47.567Z,62.14
2022-11-17T01:20:34.955Z,62.24
2022-11-17T01:23:22.375Z,62.23
2022-11-17T01:26:11.511Z,62.18
2022-11-17T01:28:59.666Z,62.07
2022-11-17T01:31:49.851Z,62.12
2022-11-17T01:34:37.200Z,62.08
2022-11-17T01:37:24.594Z,62.01
2022-11-17T01:40:13.480Z,62.11
2022-11-17T01:43:00.827Z,61.91
2022-11-17T01:45:48.378Z,62.03
2022-11-17T01:48:35.770Z,61.94
2022-11-17T01:51:23.545Z,62.09
2022-11-17T01:54:13.247Z,62.07
2022-11-17T01:57:04.057Z,62.02
2022-11-17T01:59:54.191Z,62.03
2022-11-17T02:02:42.631Z,62.11
2022-11-17T02:05:38.295Z,62.07
2022-11-17T02:08:28.033Z,62.29
2022-11-17T02:11:17.716Z,62.16
2022-11-17T02:14:05.487Z,61.92
2022-11-17T02:16:52.844Z,62.02
2022-11-17T02:19:41.058Z,62.04
2022-11-17T02:22:47.294Z,62.04
2022-11-17T02:25:34.667Z,62.15
2022-11-17T02:28:25.037Z,62.19
2022-11-17T02:31:15.380Z,62.32
2022-11-17T02:34:22.737Z,62.40
2022-11-17T02:37:17.731Z,62.52
2022-11-17T02:40:16.299Z,62.32
2022-11-17T02:43:26.417Z,62.38
2022-11-17T02:46:20.019Z,62.35
2022-11-17T02:49:12.345Z,62.37
2022-11-17T02:52:00.418Z,62.49
2022-11-17T02:54:47.777Z,62.46
2022-11-17T02:57:36.303Z,62.24
2022-11-17T03:00:23.818Z,62.34
2022-11-17T03:03:27.013Z,62.43
2022-11-17T03:06:22.327Z,62.55
2022-11-17T03:09:21.592Z,62.62
2022-11-17T03:12:08.932Z,62.49
2022-11-17T03:15:11.695Z,62.50
2022-11-17T03:17:59.627Z,62.53
2022-11-17T03:20:57.453Z,62.50
2022-11-17T03:23:54.771Z,62.52
2022-11-17T03:26:45.045Z,62.67
2022-11-17T03:29:34.161Z,62.66
2022-11-17T03:32:23.475Z,62.73
2022-11-17T03:35:17.109Z,62.88
2022-11-17T03:38:08.018Z,62.64
2022-11-17T03:40:57.908Z,63.16
2022-11-17T03:43:48.560Z,63.12
2022-11-17T03:46:38.416Z,63.06
2022-11-17T03:49:44.964Z,63.02
2022-11-17T03:52:33.415Z,62.95
2022-11-17T03:55:26.825Z,63.02
2022-11-17T03:58:16.960Z,62.78
2022-11-17T04:01:05.782Z,62.72
2022-11-17T04:03:53.317Z,62.93
2022-11-17T04:06:40.729Z,62.83
2022-11-17T04:09:28.109Z,62.71
2022-11-17T04:12:33.957Z,62.91
2022-11-17T04:15:39.756Z,62.75
2022-11-17T04:18:27.292Z,62.99
2022-11-17T04:21:14.732Z,63.05
2022-11-17T04:24:02.156Z,63.03
2022-11-17T04:27:08.203Z,63.09
2022-11-17T04:29:55.646Z,62.87
2022-11-17T04:32:43.241Z,63.02
2022-11-17T04:35:31.017Z,62.96
2022-11-17T04:48:11.181Z,63.33
2022-11-17T04:50:59.040Z,63.39
2022-11-17T04:53:47.336Z,63.19
2022-11-17T04:56:35.390Z,63.33
2022-11-17T04:59:23.558Z,63.20
2022-11-17T05:02:11.358Z,63.40
2022-11-17T05:04:59.522Z,63.09
2022-11-17T05:07:47.331Z,63.13
2022-11-17T05:10:53.777Z,63.21
2022-11-17T05:13:41.482Z,63.28
2022-11-17T05:16:48.417Z,63.22
2022-11-17T05:19:37.682Z,63.32
2022-11-17T05:22:44.746Z,63.39
2022-11-17T05:25:32.703Z,63.60
2022-11-17T05:28:20.611Z,63.63
2022-11-17T05:31:09.416Z,63.93
2022-11-17T05:33:58.033Z,64.03
2022-11-17T05:36:46.321Z,64.23
2022-11-17T05:39:34.304Z,64.10
2022-11-17T05:42:24.620Z,64.01
2022-11-17T05:45:17.957Z,63.63
2022-11-17T05:48:06.041Z,63.90
2022-11-17T05:50:54.636Z,63.86
2022-11-17T05:53:42.496Z,63.83
2022-11-17T05:56:32.237Z,63.94
2022-11-17T05:59:39.528Z,63.76
2022-11-17T06:02:33.064Z,63.81
2022-11-17T06:05:25.689Z,63.86
2022-11-17T06:08:14.550Z,63.82
2022-11-17T06:11:02.620Z,63.72
2022-11-17T06:13:50.849Z,63.80
2022-11-17T06:16:41.710Z,63.47
2022-11-17T06:19:33.619Z,63.73
2022-11-17T06:22:21.732Z,63.79
2022-11-17T06:25:12.365Z,63.91
2022-11-17T06:28:05.034Z,63.84
2022-11-17T06:30:54.278Z,63.72
2022-11-17T06:33:43.049Z,63.84
2022-11-17T06:36:32.427Z,63.91
2022-11-17T06:39:20.546Z,63.90
2022-11-17T06:42:08.954Z,64.00
2022-11-17T06:44:57.199Z,63.97
2022-11-17T06:47:45.341Z,63.81
2022-11-17T06:50:35.173Z,63.76
2022-11-17T06:53:23.729Z,63.65
2022-11-17T06:56:14.084Z,63.77
2022-11-17T06:59:07.563Z,63.76
2022-11-17T07:01:58.384Z,63.91
2022-11-17T07:04:48.157Z,63.78
2022-11-17T07:07:37.445Z,63.73
2022-11-17T07:10:25.826Z,63.79
2022-11-17T07:13:16.353Z,63.53
2022-11-17T07:16:05.940Z,63.63
2022-11-17T07:18:53.834Z,63.59
2022-11-17T07:21:41.901Z,63.30
2022-11-17T07:24:29.882Z,63.46
2022-11-17T07:27:17.806Z,63.36
2022-11-17T07:30:06.045Z,63.41
2022-11-17T07:32:54.976Z,63.31
2022-11-17T07:35:43.045Z,63.46
2022-11-17T07:38:35.716Z,63.45
2022-11-17T07:41:24.166Z,63.18
2022-11-17T07:44:12.569Z,63.12
2022-11-17T07:47:01.331Z,63.30
2022-11-17T07:49:51.506Z,63.23
2022-11-17T07:52:41.645Z,63.41
2022-11-17T07:55:29.843Z,63.39
2022-11-17T07:58:17.876Z,63.69
2022-11-17T08:01:15.734Z,63.42
2022-11-17T08:04:05.864Z,63.60
2022-11-17T08:06:53.951Z,63.68
2022-11-17T08:09:47.841Z,64.05
2022-11-17T08:12:36.071Z,63.90
2022-11-17T08:15:24.475Z,63.33
2022-11-17T08:18:13.176Z,63.41
2022-11-17T08:21:08.061Z,63.31
2022-11-17T08:23:56.596Z,63.42
2022-11-17T08:26:44.613Z,63.06
2022-11-17T08:29:34.798Z,63.15
2022-11-17T08:32:28.590Z,63.22
2022-11-17T08:35:17.494Z,63.21
2022-11-17T08:38:08.323Z,63.22
2022-11-17T08:40:56.960Z,63.24
2022-11-17T08:43:44.852Z,63.24
2022-11-17T08:46:36.359Z,62.89
2022-11-17T08:49:24.357Z,62.60
2022-11-17T08:55:14.095Z,62.44
2022-11-17T08:58:02.193Z,62.36
2022-11-17T09:00:50.329Z,62.15
2022-11-17T09:03:38.909Z,62.47
2022-11-17T09:06:29.217Z,62.45
2022-11-17T09:09:17.508Z,62.44
2022-11-17T09:12:05.638Z,62.20
2022-11-17T09:14:53.815Z,62.02
2022-11-17T09:17:43.818Z,62.31
2022-11-17T09:20:32.204Z,62.29
2022-11-17T09:23:19.974Z,62.32
2022-11-17T09:26:12.528Z,62.30
2022-11-17T09:29:06.652Z,62.63
2022-11-17T09:31:55.649Z,62.60
2022-11-17T09:34:44.443Z,62.45
2022-11-17T09:37:33.688Z,62.50
2022-11-17T09:40:25.314Z,62.27
2022-11-17T09:43:27.414Z,61.81
2022-11-17T09:46:20.559Z,61.37
2022-11-17T09:49:14.578Z,61.08
2022-11-17T09:52:07.225Z,61.14
2022-11-17T09:54:57.069Z,61.00
2022-11-17T09:57:50.864Z,60.80
2022-11-17T10:00:40.722Z,60.96
2022-11-17T10:03:32.120Z,61.06
2022-11-17T10:06:21.669Z,61.02
2022-11-17T10:09:25.178Z,61.19
2022-11-17T10:12:21.179Z,61.18
2022-11-17T10:15:34.060Z,61.07
2022-11-17T10:18:22.057Z,61.17
2022-11-17T10:21:11.657Z,61.53
2022-11-17T10:23:59.881Z,61.57
2022-11-17T10:26:49.189Z,61.20
2022-11-17T10:29:37.361Z,61.38
2022-11-17T10:32:26.196Z,61.33
2022-11-17T10:35:19.324Z,61.28
2022-11-17T10:38:18.167Z,61.18
2022-11-17T10:41:13.768Z,61.41
2022-11-17T10:44:03.958Z,61.46
2022-11-17T10:47:01.753Z,61.28
2022-11-17T10:50:05.535Z,61.08
2022-11-17T10:52:55.690Z,60.86
2022-11-17T10:55:46.345Z,60.88
2022-11-17T10:58:55.842Z,61.11
2022-11-17T11:01:45.517Z,61.20
2022-11-17T11:04:39.613Z,61.05
2022-11-17T11:07:28.501Z,60.92
2022-11-17T11:10:30.079Z,60.74
2022-11-17T11:13:24.208Z,60.62
2022-11-17T11:16:12.454Z,60.70
2022-11-17T11:19:02.337Z,60.85
2022-11-17T11:21:53.481Z,60.93
2022-11-17T11:24:42.430Z,61.00
2022-11-17T11:27:36.609Z,61.08
2022-11-17T11:30:25.142Z,61.26
2022-11-17T11:33:27.912Z,61.32
2022-11-17T11:36:24.705Z,61.27
2022-11-17T11:39:31.880Z,61.22
2022-11-17T11:42:24.965Z,61.21
2022-11-17T11:45:42.699Z,61.28
2022-11-17T11:48:50.333Z,61.26
2022-11-17T11:51:39.576Z,61.41
2022-11-17T11:54:33.147Z,61.29
2022-11-17T11:57:31.470Z,61.10
2022-11-17T12:00:20.148Z,61.18
2022-11-17T12:03:26.630Z,61.15
2022-11-17T12:06:42.480Z,61.18
2022-11-17T12:09:38.649Z,60.79
2022-11-17T12:12:35.795Z,61.01
2022-11-17T12:15:23.640Z,61.15
2022-11-17T12:18:17.405Z,61.05
2022-11-17T12:21:11.801Z,61.08
2022-11-17T12:24:00.082Z,61.16
2022-11-17T12:26:48.059Z,61.23
2022-11-17T12:29:46.076Z,61.18
2022-11-17T12:32:52.938Z,61.18
2022-11-17T12:35:43.975Z,61.39
2022-11-17T12:38:32.007Z,61.53
2022-11-17T12:41:38.687Z,61.70
2022-11-17T12:44:34.129Z,61.83
2022-11-17T12:47:23.576Z,62.01
2022-11-17T12:50:18.218Z,61.91
2022-11-17T12:53:19.313Z,61.81
2022-11-17T12:56:12.746Z,61.91
2022-11-17T12:59:15.865Z,61.92
2022-11-17T13:02:26.913Z,61.93
2022-11-17T13:05:24.104Z,61.84
2022-11-17T13:08:20.340Z,61.84
2022-11-17T13:11:17.543Z,61.46
2022-11-17T13:14:14.110Z,61.48
2022-11-17T13:17:03.068Z,61.55
2022-11-17T13:20:03.053Z,61.76
2022-11-17T13:23:06.813Z,61.66
2022-11-17T13:26:11.741Z,61.72
2022-11-17T13:29:05.643Z,61.52
2022-11-17T13:32:13.192Z,61.67
2022-11-17T13:35:01.892Z,61.96
2022-11-17T13:38:21.997Z,62.04
2022-11-17T13:41:14.468Z,62.06
2022-11-17T13:44:03.302Z,62.40
2022-11-17T13:46:51.398Z,62.36
2022-11-17T13:49:39.837Z,62.62
2022-11-17T13:52:40.555Z,62.84
2022-11-17T14:04:23.006Z,63.28
2022-11-17T14:07:12.217Z,63.25
2022-11-17T14:10:18.742Z,63.35
2022-11-17T14:13:06.407Z,63.41
2022-11-17T14:15:56.182Z,63.44
2022-11-17T14:18:43.592Z,63.52
2022-11-17T14:21:31.871Z,63.48
2022-11-17T14:24:19.238Z,63.50
2022-11-17T14:27:33.256Z,63.53
2022-11-17T14:30:20.721Z,63.55
2022-11-17T14:33:13.416Z,63.51
2022-11-17T14:36:01.282Z,63.59
2022-11-17T14:38:48.808Z,63.65
2022-11-17T14:41:36.294Z,63.73
2022-11-17T14:44:23.903Z,63.58
2022-11-17T14:47:11.498Z,63.77
2022-11-17T14:49:58.880Z,63.56
2022-11-17T14:52:46.446Z,63.74
2022-11-17T14:55:34.074Z,63.69
2022-11-17T14:58:21.562Z,63.72
2022-11-17T15:01:16.038Z,63.72
2022-11-17T15:04:27.308Z,63.82
2022-11-17T15:07:12.490Z,63.75
2022-11-17T15:10:00.248Z,63.75
2022-11-17T15:12:47.726Z,63.81
2022-11-17T15:15:35.155Z,64.07
2022-11-17T15:38:37.976Z,64.14
2022-11-17T15:42:08.071Z,63.68
2022-11-17T16:23:34.965Z,62.18
2022-11-17T16:27:13.273Z,62.47
2022-11-17T16:30:35.704Z,62.60
2022-11-17T17:20:13.260Z,62.11
2022-11-17T17:23:22.096Z,62.28
2022-11-17T17:26:14.826Z,62.40
2022-11-17T17:29:06.949Z,62.30
2022-11-17T17:31:55.716Z,62.46
2022-11-17T17:34:47.697Z,62.46
2022-11-17T17:37:36.503Z,62.46
2022-11-17T17:40:25.644Z,62.26
2022-11-17T17:43:14.407Z,62.38
2022-11-17T17:46:12.826Z,62.42
2022-11-17T17:49:04.102Z,62.20
2022-11-17T17:51:52.323Z,62.51
2022-11-17T17:54:42.943Z,62.67
2022-11-17T17:57:33.899Z,62.70
2022-11-17T18:00:22.119Z,62.76
2022-11-17T18:07:54.364Z,62.85
2022-11-17T18:10:41.784Z,62.93
2022-11-17T18:13:30.126Z,62.84
2022-11-17T18:20:07.592Z,62.98
2022-11-17T18:22:57.667Z,62.79
2022-11-17T18:25:48.147Z,62.84
2022-11-17T18:28:36.072Z,62.94
2022-11-17T18:31:25.342Z,62.80
2022-11-17T18:34:21.627Z,62.95
2022-11-17T18:37:09.333Z,62.98
2022-11-17T18:39:56.686Z,62.97
2022-11-17T18:42:44.031Z,63.02
2022-11-17T18:45:31.444Z,63.06
2022-11-17T18:48:18.833Z,63.16
2022-11-17T18:51:22.527Z,63.15
2022-11-17T18:54:10.867Z,63.41
2022-11-17T18:57:00.146Z,63.36
2022-11-17T18:59:47.652Z,63.43
2022-11-17T19:02:35.398Z,63.46
2022-11-17T19:05:22.793Z,63.50
2022-11-17T19:08:10.127Z,63.51
2022-11-17T19:10:59.816Z,63.67
2022-11-17T19:13:50.833Z,63.60
2022-11-17T19:16:44.477Z,63.89
2022-11-17T19:19:32.405Z,63.82
2022-11-17T19:22:20.154Z,64.12
2022-11-17T19:25:07.710Z,64.28
2022-11-17T19:27:55.071Z,64.35
2022-11-17T19:30:42.666Z,64.31
2022-11-17T19:33:30.919Z,64.46
2022-11-17T19:36:36.483Z,64.65
2022-11-17T19:39:23.865Z,64.66
2022-11-17T19:42:12.274Z,64.55
2022-11-17T19:44:59.678Z,64.38
2022-11-17T19:47:47.086Z,64.23
2022-11-17T19:50:34.474Z,64.33
2022-11-17T19:53:21.890Z,64.45
2022-11-17T19:56:09.508Z,64.22
2022-11-17T19:58:56.975Z,64.18
2022-11-17T20:01:45.626Z,64.00
2022-11-17T20:04:33.126Z,64.06
2022-11-17T20:07:20.527Z,63.91
2022-11-17T20:10:08.108Z,63.89
2022-11-17T20:12:55.517Z,64.05
2022-11-17T20:15:42.963Z,63.90
2022-11-17T20:18:30.716Z,63.91
2022-11-17T20:21:18.356Z,64.04
2022-11-17T20:24:05.809Z,64.00
2022-11-17T20:26:53.219Z,64.08
2022-11-17T20:29:40.568Z,63.94
2022-11-17T20:32:31.626Z,64.35
2022-11-17T20:35:19.252Z,65.05
2022-11-17T20:38:07.323Z,65.20
2022-11-17T20:40:57.637Z,65.27
2022-11-17T20:43:47.343Z,65.24
2022-11-17T20:46:34.679Z,65.30
2022-11-17T20:49:22.370Z,65.12
2022-11-17T20:52:13.307Z,65.20
2022-11-17T20:55:01.028Z,65.07
2022-11-17T20:57:48.625Z,65.00
2022-11-17T21:00:36.072Z,64.98
2022-11-17T21:03:24.203Z,65.04
2022-11-17T21:06:11.906Z,64.85
2022-11-17T21:08:59.290Z,64.85
2022-11-17T21:11:58.728Z,64.56
2022-11-17T21:14:46.152Z,64.51
2022-11-17T21:17:52.388Z,64.67
2022-11-17T21:20:39.848Z,64.57
2022-11-17T21:23:27.932Z,64.73
2022-11-17T21:26:17.184Z,64.56
2022-11-17T21:29:06.787Z,64.63
2022-11-17T21:32:04.427Z,64.59
2022-11-17T21:34:51.866Z,64.77
2022-11-17T21:37:39.196Z,64.74
2022-11-17T21:40:26.610Z,64.58
2022-11-17T21:43:14.012Z,64.51
2022-11-17T21:46:05.472Z,64.40
2022-11-17T21:48:54.989Z,64.41
2022-11-17T21:51:42.516Z,64.11
2022-11-17T21:54:29.856Z,64.48
2022-11-17T21:57:17.282Z,64.17
2022-11-17T22:00:05.884Z,64.48
2022-11-17T22:02:53.278Z,64.44
2022-11-17T22:05:40.636Z,64.29
2022-11-17T22:08:27.988Z,64.31
2022-11-17T22:11:16.619Z,64.29
2022-11-17T22:14:05.612Z,64.35
2022-11-17T22:16:53.607Z,64.20
2022-11-17T22:19:41.010Z,64.30
2022-11-17T22:22:28.363Z,64.33
2022-11-17T22:25:42.948Z,64.40
2022-11-17T22:28:23.730Z,64.31
2022-11-17T22:31:11.076Z,64.35
2022-11-17T22:33:58.593Z,64.32
2022-11-17T22:36:46.107Z,64.15
2022-11-17T22:39:33.582Z,64.41
2022-11-17T22:42:20.959Z,64.48
2022-11-17T22:45:08.475Z,64.41
2022-11-17T22:47:55.834Z,64.44
2022-11-17T22:50:43.213Z,64.33
2022-11-17T22:53:31.837Z,64.32
2022-11-17T22:56:19.129Z,64.43
2022-11-17T22:59:06.608Z,64.52
2022-11-17T23:01:54.085Z,64.65
2022-11-17T23:04:41.461Z,64.85
2022-11-17T23:07:28.989Z,64.88
2022-11-17T23:10:16.562Z,64.88
2022-11-17T23:13:04.245Z,64.72
2022-11-17T23:15:51.639Z,64.68
2022-11-17T23:18:39.095Z,64.64
2022-11-17T23:21:26.491Z,64.79
2022-11-17T23:24:14.828Z,64.63
2022-11-17T23:27:02.268Z,64.68
2022-11-17T23:29:49.987Z,64.52
2022-11-17T23:32:37.375Z,64.53
2022-11-17T23:35:24.849Z,64.46
2022-11-17T23:38:12.238Z,64.50
2022-11-17T23:41:00.462Z,64.66
2022-11-17T23:43:51.562Z,64.47
2022-11-17T23:46:39.009Z,64.60
2022-11-17T23:49:26.445Z,64.62
2022-11-17T23:52:13.832Z,64.57
2022-11-17T23:55:01.376Z,64.75
2022-11-17T23:57:53.149Z,64.68
